createdAt,value
2022-10-29T00:00:50.934Z,7.87
2022-10-29T00:03:19.376Z,7.70
2022-10-29T00:05:56.780Z,7.97
2022-10-29T00:08:26.287Z,7.30
2022-10-29T00:10:54.162Z,8.53
2022-10-29T00:13:22.092Z,9.10
2022-10-29T00:15:50.126Z,9.33
2022-10-29T00:18:18.059Z,7.73
2022-10-29T00:20:45.968Z,8.87
2022-10-29T00:23:13.855Z,8.07
2022-10-29T00:25:43.446Z,7.00
2022-10-29T00:28:11.385Z,7.90
2022-10-29T00:30:39.318Z,7.10
2022-10-29T00:33:07.318Z,6.80
2022-10-29T00:35:35.302Z,5.70
2022-10-29T00:38:03.230Z,4.97
2022-10-29T00:40:31.255Z,5.73
2022-10-29T00:43:14.578Z,4.90
2022-10-29T00:45:47.521Z,4.70
2022-10-29T00:48:15.588Z,4.73
2022-10-29T00:50:44.337Z,5.03
2022-10-29T00:53:12.456Z,6.13
2022-10-29T00:55:40.724Z,5.77
2022-10-29T00:58:11.157Z,5.47
2022-10-29T01:00:40.449Z,5.57
2022-10-29T01:03:08.487Z,5.63
2022-10-29T01:05:37.667Z,6.60
2022-10-29T01:08:06.622Z,6.07
2022-10-29T01:10:50.061Z,5.20
2022-10-29T01:13:33.027Z,5.43
2022-10-29T01:16:10.475Z,5.20
2022-10-29T01:18:46.785Z,5.50
2022-10-29T01:21:43.502Z,5.20
2022-10-29T01:28:04.514Z,6.10
2022-10-29T01:31:06.544Z,6.10
2022-10-29T01:33:42.074Z,5.73
2022-10-29T01:36:21.011Z,5.60
2022-10-29T01:38:54.661Z,5.73
2022-10-29T01:41:31.082Z,5.80
2022-10-29T01:44:08.362Z,5.80
2022-10-29T01:46:44.194Z,5.07
2022-10-29T01:49:16.953Z,6.07
2022-10-29T01:51:47.526Z,6.10
2022-10-29T01:54:15.420Z,6.33
2022-10-29T01:56:43.343Z,5.90
2022-10-29T01:59:23.278Z,7.27
2022-10-29T02:02:12.372Z,9.67
2022-10-29T02:04:56.463Z,9.37
2022-10-29T02:07:36.441Z,11.37
2022-10-29T02:10:14.757Z,9.73
2022-10-29T02:12:48.428Z,10.07
2022-10-29T02:15:21.510Z,8.50
2022-10-29T02:17:51.237Z,9.90
2022-10-29T02:20:19.570Z,9.20
2022-10-29T02:22:47.518Z,10.23
2022-10-29T02:25:15.515Z,9.97
2022-10-29T02:27:43.513Z,8.93
2022-10-29T02:30:11.781Z,9.30
2022-10-29T02:32:39.682Z,8.27
2022-10-29T02:35:10.005Z,8.23
2022-10-29T02:37:38.395Z,7.70
2022-10-29T02:40:08.123Z,6.80
2022-10-29T02:42:38.309Z,7.20
2022-10-29T02:45:06.899Z,7.73
2022-10-29T02:47:35.026Z,7.57
2022-10-29T02:50:03.003Z,7.33
2022-10-29T02:52:32.385Z,7.40
2022-10-29T02:55:00.356Z,6.33
2022-10-29T02:57:28.305Z,6.87
2022-10-29T02:59:56.442Z,6.90
2022-10-29T03:02:24.423Z,7.50
2022-10-29T03:04:52.534Z,7.13
2022-10-29T03:07:20.522Z,7.07
2022-10-29T03:09:49.788Z,6.67
2022-10-29T03:12:17.959Z,6.90
2022-10-29T03:14:46.829Z,6.37
2022-10-29T03:17:15.483Z,6.40
2022-10-29T03:19:43.402Z,6.70
2022-10-29T03:22:11.356Z,6.00
2022-10-29T03:24:39.255Z,5.93
2022-10-29T03:27:08.563Z,5.10
2022-10-29T03:29:36.558Z,5.37
2022-10-29T03:32:04.429Z,5.37
2022-10-29T03:34:33.452Z,5.77
2022-10-29T03:37:02.378Z,6.30
2022-10-29T03:39:30.505Z,5.80
2022-10-29T03:41:58.458Z,5.40
2022-10-29T03:44:27.857Z,5.20
2022-10-29T03:46:56.361Z,5.00
2022-10-29T03:49:24.418Z,4.53
2022-10-29T03:51:53.771Z,4.70
2022-10-29T03:54:22.238Z,5.10
2022-10-29T03:56:50.537Z,4.87
2022-10-29T03:59:18.550Z,4.90
2022-10-29T04:01:47.903Z,5.63
2022-10-29T04:04:16.046Z,4.97
2022-10-29T04:06:45.148Z,4.80
2022-10-29T04:09:13.138Z,5.07
2022-10-29T04:11:41.201Z,5.07
2022-10-29T04:14:09.336Z,5.10
2022-10-29T04:16:39.490Z,5.13
2022-10-29T04:19:08.919Z,5.57
2022-10-29T04:30:02.511Z,6.53
2022-10-29T04:32:30.555Z,5.73
2022-10-29T04:34:59.853Z,5.57
2022-10-29T04:37:29.635Z,5.87
2022-10-29T04:39:57.518Z,5.50
2022-10-29T04:42:25.548Z,6.27
2022-10-29T04:44:53.591Z,6.60
2022-10-29T04:47:21.653Z,5.63
2022-10-29T04:49:51.622Z,4.93
2022-10-29T04:52:20.965Z,5.93
2022-10-29T04:54:49.025Z,5.43
2022-10-29T04:57:19.642Z,5.43
2022-10-29T04:59:49.071Z,4.53
2022-10-29T05:02:17.009Z,5.37
2022-10-29T05:04:45.021Z,5.17
2022-10-29T05:07:12.916Z,4.50
2022-10-29T05:09:42.304Z,6.50
2022-10-29T05:12:10.867Z,6.27
2022-10-29T05:14:38.774Z,6.30
2022-10-29T05:19:35.962Z,4.83
2022-10-29T05:22:03.915Z,9.37
2022-10-29T05:24:31.826Z,8.47
2022-10-29T05:27:02.292Z,12.67
2022-10-29T05:29:30.185Z,8.07
2022-10-29T05:31:58.265Z,7.43
2022-10-29T05:34:26.359Z,5.90
2022-10-29T05:36:54.598Z,6.27
2022-10-29T05:39:22.631Z,5.93
2022-10-29T05:41:50.599Z,6.53
2022-10-29T05:44:19.945Z,5.37
2022-10-29T05:46:49.901Z,5.77
2022-10-29T05:49:17.821Z,5.80
2022-10-29T05:51:45.770Z,5.37
2022-10-29T05:54:13.803Z,6.37
2022-10-29T05:56:42.012Z,6.50
2022-10-29T05:59:10.468Z,23.90
2022-10-29T06:01:40.162Z,7.30
2022-10-29T06:04:08.194Z,6.13
2022-10-29T06:06:36.250Z,6.43
2022-10-29T06:09:05.328Z,6.23
2022-10-29T06:11:33.827Z,5.37
2022-10-29T06:14:02.028Z,6.47
2022-10-29T06:16:30.200Z,5.90
2022-10-29T06:18:59.571Z,5.47
2022-10-29T06:21:27.685Z,4.80
2022-10-29T06:23:55.835Z,5.83
2022-10-29T06:26:23.832Z,6.40
2022-10-29T06:28:52.150Z,5.53
2022-10-29T06:31:20.207Z,5.70
2022-10-29T06:33:48.203Z,6.13
2022-10-29T06:36:17.632Z,9.00
2022-10-29T06:38:45.553Z,8.10
2022-10-29T06:41:14.020Z,13.23
2022-10-29T06:43:42.058Z,11.03
2022-10-29T06:46:10.218Z,9.23
2022-10-29T06:48:38.710Z,8.80
2022-10-29T06:51:07.663Z,11.07
2022-10-29T06:53:39.778Z,9.07
2022-10-29T06:56:10.924Z,9.43
2022-10-29T06:58:39.907Z,9.40
2022-10-29T07:01:09.180Z,9.37
2022-10-29T07:03:37.262Z,9.60
2022-10-29T07:06:05.841Z,8.30
2022-10-29T07:08:34.212Z,8.57
2022-10-29T07:11:04.465Z,8.37
2022-10-29T07:13:32.923Z,6.90
2022-10-29T07:16:03.548Z,8.33
2022-10-29T07:18:33.889Z,6.63
2022-10-29T07:21:03.838Z,8.13
2022-10-29T07:23:32.077Z,6.97
2022-10-29T07:26:00.051Z,7.67
2022-10-29T07:28:29.654Z,7.53
2022-10-29T07:31:02.017Z,7.53
2022-10-29T07:33:34.196Z,7.50
2022-10-29T07:36:05.041Z,7.20
2022-10-29T07:38:35.518Z,7.30
2022-10-29T07:41:04.295Z,7.63
2022-10-29T07:43:33.867Z,7.07
2022-10-29T07:46:01.956Z,6.67
2022-10-29T07:48:30.169Z,6.87
2022-10-29T07:50:59.398Z,7.30
2022-10-29T07:53:27.838Z,7.40
2022-10-29T07:55:56.544Z,7.10
2022-10-29T07:58:25.126Z,6.77
2022-10-29T08:00:54.937Z,6.77
2022-10-29T08:03:25.102Z,6.70
2022-10-29T08:05:56.628Z,6.93
2022-10-29T08:08:28.065Z,6.20
2022-10-29T08:11:05.125Z,6.70
2022-10-29T08:13:37.850Z,5.80
2022-10-29T08:16:10.939Z,5.83
2022-10-29T08:18:42.995Z,5.23
2022-10-29T08:21:16.203Z,5.60
2022-10-29T08:23:50.096Z,5.33
2022-10-29T08:26:21.844Z,5.10
2022-10-29T08:28:53.523Z,4.73
2022-10-29T08:31:28.500Z,5.17
2022-10-29T08:33:58.840Z,4.50
2022-10-29T08:36:28.444Z,4.77
2022-10-29T08:38:58.325Z,4.63
2022-10-29T08:41:45.161Z,4.43
2022-10-29T08:44:47.590Z,4.67
2022-10-29T08:47:20.777Z,4.40
2022-10-29T08:50:01.943Z,4.50
2022-10-29T08:52:32.179Z,4.57
2022-10-29T08:55:07.687Z,4.13
2022-10-29T08:57:42.935Z,3.97
2022-10-29T09:00:17.007Z,4.10
2022-10-29T09:02:47.083Z,4.43
2022-10-29T09:05:16.550Z,4.07
2022-10-29T09:08:02.471Z,4.17
2022-10-29T09:10:41.444Z,4.10
2022-10-29T09:13:28.084Z,3.50
2022-10-29T09:16:19.145Z,3.50
2022-10-29T09:19:02.456Z,3.53
2022-10-29T09:21:34.938Z,4.30
2022-10-29T09:24:14.452Z,4.37
2022-10-29T09:26:53.392Z,4.30
2022-10-29T09:29:45.892Z,3.57
2022-10-29T09:32:19.259Z,3.83
2022-10-29T09:34:51.564Z,3.00
2022-10-29T09:37:25.004Z,3.53
2022-10-29T09:39:55.235Z,3.23
2022-10-29T09:42:38.043Z,2.87
2022-10-29T09:45:09.420Z,3.03
2022-10-29T09:47:44.663Z,4.07
2022-10-29T09:50:20.793Z,3.13
2022-10-29T09:52:50.343Z,3.10
2022-10-29T09:55:24.450Z,3.10
2022-10-29T09:57:53.717Z,3.67
2022-10-29T10:00:24.967Z,3.43
2022-10-29T10:02:59.767Z,3.20
2022-10-29T10:05:31.595Z,3.57
2022-10-29T10:08:08.702Z,4.07
2022-10-29T10:10:51.113Z,4.23
2022-10-29T10:13:21.854Z,4.03
2022-10-29T10:15:56.165Z,4.70
2022-10-29T10:18:26.650Z,4.30
2022-10-29T10:21:05.393Z,5.57
2022-10-29T10:23:45.772Z,4.17
2022-10-29T10:26:32.105Z,3.47
2022-10-29T10:29:12.031Z,4.20
2022-10-29T10:31:40.406Z,3.77
2022-10-29T10:34:17.881Z,3.03
2022-10-29T10:36:50.027Z,3.10
2022-10-29T10:39:25.747Z,2.97
2022-10-29T10:41:53.836Z,3.50
2022-10-29T10:44:24.047Z,3.10
2022-10-29T10:46:55.442Z,3.43
2022-10-29T10:49:31.631Z,3.53
2022-10-29T10:52:03.212Z,3.20
2022-10-29T10:54:36.962Z,2.90
2022-10-29T10:57:17.872Z,2.60
2022-10-29T10:59:54.248Z,2.70
2022-10-29T11:02:30.616Z,3.20
2022-10-29T11:05:07.791Z,2.93
2022-10-29T11:07:41.557Z,3.07
2022-10-29T11:10:15.143Z,2.50
2022-10-29T11:12:47.749Z,3.43
2022-10-29T11:15:21.301Z,2.53
2022-10-29T11:17:54.992Z,2.97
2022-10-29T11:20:27.177Z,2.70
2022-10-29T11:23:09.796Z,3.07
2022-10-29T11:25:42.728Z,2.73
2022-10-29T11:28:24.753Z,3.90
2022-10-29T11:31:01.069Z,2.67
2022-10-29T11:33:38.523Z,2.83
2022-10-29T11:36:15.116Z,3.00
2022-10-29T11:38:49.841Z,3.50
2022-10-29T11:41:26.846Z,2.90
2022-10-29T11:43:55.744Z,3.03
2022-10-29T11:46:33.926Z,3.00
2022-10-29T11:49:16.803Z,3.00
2022-10-29T11:52:00.448Z,2.90
2022-10-29T11:54:45.524Z,3.17
2022-10-29T11:57:18.506Z,2.93
2022-10-29T12:00:02.999Z,2.63
2022-10-29T12:03:15.543Z,2.90
2022-10-29T12:05:51.854Z,2.90
2022-10-29T12:08:38.471Z,3.30
2022-10-29T12:11:20.954Z,2.20
2022-10-29T12:13:58.892Z,3.00
2022-10-29T12:16:35.038Z,2.70
2022-10-29T12:19:14.100Z,2.73
2022-10-29T12:21:49.979Z,3.83
2022-10-29T12:24:30.583Z,3.10
2022-10-29T12:27:07.353Z,3.07
2022-10-29T12:29:47.358Z,2.77
2022-10-29T12:32:24.077Z,3.03
2022-10-29T12:35:02.809Z,2.60
2022-10-29T12:37:41.929Z,2.63
2022-10-29T12:40:17.773Z,3.00
2022-10-29T12:42:48.562Z,2.60
2022-10-29T12:45:31.111Z,2.93
2022-10-29T12:48:10.190Z,2.80
2022-10-29T12:50:55.445Z,2.90
2022-10-29T12:53:32.102Z,3.13
2022-10-29T12:56:00.049Z,3.40
2022-10-29T12:58:50.224Z,3.00
2022-10-29T13:02:10.566Z,3.20
2022-10-29T13:04:37.464Z,2.67
2022-10-29T13:07:23.177Z,2.60
2022-10-29T13:10:31.116Z,2.60
2022-10-29T13:13:05.443Z,2.40
2022-10-29T13:15:38.366Z,2.97
2022-10-29T13:18:20.205Z,3.07
2022-10-29T13:20:50.008Z,3.10
2022-10-29T13:23:34.934Z,3.03
2022-10-29T13:26:04.165Z,2.70
2022-10-29T13:28:53.230Z,2.23
2022-10-29T13:31:54.404Z,3.67
2022-10-29T13:34:50.622Z,3.03
2022-10-29T13:37:40.659Z,4.13
2022-10-29T13:40:46.247Z,11.43
2022-10-29T13:43:19.375Z,7.37
2022-10-29T13:45:52.985Z,5.50
2022-10-29T13:48:29.649Z,5.10
2022-10-29T13:50:59.955Z,2.83
2022-10-29T13:53:38.266Z,3.77
2022-10-29T13:56:11.121Z,2.90
2022-10-29T13:58:44.334Z,3.30
2022-10-29T14:01:18.417Z,3.70
2022-10-29T14:03:59.027Z,5.77
2022-10-29T14:06:32.310Z,4.50
2022-10-29T14:09:12.349Z,5.80
2022-10-29T14:11:42.711Z,4.90
2022-10-29T14:14:27.735Z,5.37
2022-10-29T14:17:11.574Z,4.13
2022-10-29T14:19:44.607Z,4.23
2022-10-29T14:22:36.453Z,3.10
2022-10-29T14:25:28.049Z,4.63
2022-10-29T14:28:15.965Z,4.47
2022-10-29T14:30:44.163Z,4.40
2022-10-29T14:33:19.976Z,4.20
2022-10-29T14:35:49.655Z,3.90
2022-10-29T14:38:18.241Z,3.33
2022-10-29T14:40:47.872Z,3.33
2022-10-29T14:43:25.166Z,3.37
2022-10-29T14:45:53.412Z,3.17
2022-10-29T14:48:21.459Z,3.37
2022-10-29T14:50:56.570Z,3.37
2022-10-29T14:53:30.689Z,3.53
2022-10-29T14:56:00.972Z,3.03
2022-10-29T14:58:31.752Z,3.33
2022-10-29T15:01:02.335Z,3.40
2022-10-29T15:03:34.184Z,3.57
2022-10-29T15:06:16.005Z,4.03
2022-10-29T15:08:45.846Z,4.57
2022-10-29T15:11:35.652Z,4.33
2022-10-29T15:14:05.465Z,4.77
2022-10-29T15:16:38.176Z,4.77
2022-10-29T15:19:16.417Z,10.33
2022-10-29T15:21:46.295Z,22.23
2022-10-29T15:24:20.783Z,24.60
2022-10-29T15:26:51.503Z,19.50
2022-10-29T15:29:29.143Z,15.70
2022-10-29T15:32:00.529Z,10.13
2022-10-29T15:34:33.066Z,8.33
2022-10-29T15:37:16.504Z,6.80
2022-10-29T15:40:02.236Z,10.50
2022-10-29T15:42:33.066Z,8.10
2022-10-29T15:45:14.510Z,6.73
2022-10-29T15:47:44.388Z,4.53
2022-10-29T15:50:14.258Z,3.90
2022-10-29T15:52:45.957Z,4.20
2022-10-29T15:55:26.589Z,3.90
2022-10-29T15:57:57.745Z,3.83
2022-10-29T16:00:25.901Z,3.70
2022-10-29T16:02:58.736Z,5.53
2022-10-29T16:05:26.896Z,4.20
2022-10-29T16:07:56.260Z,4.17
2022-10-29T16:10:24.224Z,3.93
2022-10-29T16:12:52.227Z,5.37
2022-10-29T16:15:21.328Z,8.33
2022-10-29T16:17:49.366Z,6.97
2022-10-29T16:20:20.161Z,7.57
2022-10-29T16:22:49.997Z,8.00
2022-10-29T16:25:23.791Z,8.47
2022-10-29T16:27:51.816Z,6.50
2022-10-29T16:30:20.113Z,7.60
2022-10-29T16:32:50.144Z,6.30
2022-10-29T16:35:21.689Z,6.47
2022-10-29T16:37:52.300Z,6.00
2022-10-29T16:40:23.439Z,6.90
2022-10-29T16:42:51.777Z,6.23
2022-10-29T16:45:23.936Z,6.37
2022-10-29T16:47:52.973Z,6.97
2022-10-29T16:50:23.911Z,5.73
2022-10-29T16:52:58.380Z,7.43
2022-10-29T16:55:28.397Z,7.13
2022-10-29T16:57:56.773Z,6.27
2022-10-29T17:00:25.955Z,7.53
2022-10-29T17:02:54.293Z,6.23
2022-10-29T17:05:22.868Z,6.00
2022-10-29T17:07:54.408Z,6.57
2022-10-29T17:10:22.825Z,6.70
2022-10-29T17:12:52.194Z,5.77
2022-10-29T17:15:20.885Z,6.57
2022-10-29T17:17:49.006Z,7.23
2022-10-29T17:20:17.035Z,6.90
2022-10-29T17:22:45.135Z,7.13
2022-10-29T17:25:13.585Z,8.27
2022-10-29T17:27:42.046Z,6.73
2022-10-29T17:30:12.628Z,7.53
2022-10-29T17:32:40.583Z,7.17
2022-10-29T17:35:09.067Z,7.00
2022-10-29T17:37:37.266Z,7.03
2022-10-29T17:40:08.069Z,6.87
2022-10-29T17:42:37.129Z,6.87
2022-10-29T17:45:05.664Z,6.90
2022-10-29T17:47:35.098Z,6.47
2022-10-29T17:50:03.081Z,7.03
2022-10-29T17:52:31.029Z,7.33
2022-10-29T17:54:59.078Z,7.23
2022-10-29T17:57:27.028Z,7.17
2022-10-29T17:59:55.119Z,7.13
2022-10-29T18:02:23.659Z,6.23
2022-10-29T18:04:53.206Z,7.00
2022-10-29T18:07:21.302Z,6.40
2022-10-29T18:09:49.433Z,6.47
2022-10-29T18:12:19.875Z,5.87
2022-10-29T18:14:47.836Z,6.27
2022-10-29T18:17:15.688Z,6.30
2022-10-29T18:19:43.692Z,6.70
2022-10-29T18:22:12.945Z,5.80
2022-10-29T18:24:40.860Z,6.90
2022-10-29T18:27:08.901Z,7.50
2022-10-29T18:29:36.829Z,7.10
2022-10-29T18:32:05.853Z,7.20
2022-10-29T18:34:34.408Z,11.07
2022-10-29T18:37:02.634Z,11.57
2022-10-29T18:39:31.969Z,8.37
2022-10-29T18:42:00.075Z,9.20
2022-10-29T18:44:28.666Z,10.07
2022-10-29T18:46:56.672Z,9.40
2022-10-29T18:49:24.609Z,8.57
2022-10-29T18:51:54.574Z,9.33
2022-10-29T18:54:22.585Z,8.87
2022-10-29T18:56:51.912Z,9.47
2022-10-29T18:59:19.850Z,15.20
2022-10-29T19:01:47.979Z,14.60
2022-10-29T19:04:16.634Z,11.27
2022-10-29T19:06:45.039Z,10.97
2022-10-29T19:09:13.322Z,15.73
2022-10-29T19:11:41.310Z,18.17
2022-10-29T19:14:14.121Z,14.40
2022-10-29T19:16:42.172Z,9.47
2022-10-29T19:19:12.991Z,9.63
2022-10-29T19:21:43.053Z,9.93
2022-10-29T19:24:14.845Z,8.97
2022-10-29T19:26:43.211Z,9.37
2022-10-29T19:29:13.186Z,9.00
2022-10-29T19:31:41.666Z,9.37
2022-10-29T19:34:10.039Z,8.40
2022-10-29T19:36:39.979Z,9.00
2022-10-29T19:39:08.861Z,8.13
2022-10-29T19:41:36.906Z,8.20
2022-10-29T19:44:05.510Z,8.10
2022-10-29T19:46:34.810Z,7.03
2022-10-29T19:49:03.831Z,8.17
2022-10-29T19:51:31.948Z,8.20
2022-10-29T19:54:02.066Z,8.13
2022-10-29T19:56:30.212Z,7.10
2022-10-29T19:58:58.164Z,6.50
2022-10-29T20:01:26.378Z,6.70
2022-10-29T20:03:55.892Z,6.90
2022-10-29T20:06:24.224Z,7.93
2022-10-29T20:08:52.267Z,7.80
2022-10-29T20:11:20.499Z,8.00
2022-10-29T20:13:48.493Z,8.00
2022-10-29T20:16:18.711Z,7.27
2022-10-29T20:18:46.885Z,7.27
2022-10-29T20:21:16.863Z,7.23
2022-10-29T20:23:45.535Z,7.20
2022-10-29T20:26:13.635Z,7.63
2022-10-29T20:28:41.680Z,9.20
2022-10-29T20:31:29.999Z,10.20
2022-10-29T20:34:00.306Z,9.20
2022-10-29T20:36:32.187Z,9.00
2022-10-29T20:39:00.620Z,8.17
2022-10-29T20:41:29.118Z,7.97
2022-10-29T20:43:58.565Z,7.10
2022-10-29T20:46:26.913Z,7.57
2022-10-29T20:48:55.121Z,7.37
2022-10-29T20:51:23.866Z,8.13
2022-10-29T20:53:54.493Z,7.70
2022-10-29T20:56:24.305Z,8.17
2022-10-29T20:58:52.423Z,7.80
2022-10-29T21:01:22.875Z,7.30
2022-10-29T21:03:51.397Z,7.83
2022-10-29T21:06:20.194Z,6.63
2022-10-29T21:08:48.510Z,7.70
2022-10-29T21:11:19.536Z,7.57
2022-10-29T21:13:47.967Z,7.43
2022-10-29T21:16:18.558Z,7.30
2022-10-29T21:18:47.922Z,7.77
2022-10-29T21:21:16.613Z,8.00
2022-10-29T21:23:45.217Z,7.17
2022-10-29T21:26:14.714Z,7.10
2022-10-29T21:28:44.570Z,7.50
2022-10-29T21:31:12.849Z,7.27
2022-10-29T21:33:41.242Z,7.10
2022-10-29T21:36:11.100Z,7.30
2022-10-29T21:38:39.022Z,6.93
2022-10-29T21:41:07.194Z,7.90
2022-10-29T21:43:35.422Z,7.17
2022-10-29T21:46:04.839Z,6.70
2022-10-29T21:48:33.757Z,6.90
2022-10-29T21:51:03.823Z,7.53
2022-10-29T21:53:31.875Z,7.57
2022-10-29T21:56:00.947Z,8.00
2022-10-29T21:58:29.350Z,8.73
2022-10-29T22:01:09.593Z,9.20
2022-10-29T22:03:40.481Z,8.13
2022-10-29T22:06:11.545Z,7.60
2022-10-29T22:08:39.864Z,8.00
2022-10-29T22:11:08.142Z,6.90
2022-10-29T22:13:37.055Z,7.10
2022-10-29T22:16:08.595Z,7.10
2022-10-29T22:18:37.253Z,6.67
2022-10-29T22:21:07.989Z,7.43
2022-10-29T22:23:37.924Z,7.00
2022-10-29T22:26:06.047Z,7.27
2022-10-29T22:28:34.077Z,7.23
2022-10-29T22:31:04.216Z,7.23
2022-10-29T22:33:34.589Z,7.40
2022-10-29T22:36:08.838Z,8.53
2022-10-29T22:38:37.217Z,7.53
2022-10-29T22:41:06.638Z,7.60
2022-10-29T22:43:34.719Z,6.10
2022-10-29T22:46:02.829Z,6.30
2022-10-29T22:48:30.792Z,5.70
2022-10-29T22:51:05.429Z,5.87
2022-10-29T22:53:34.160Z,5.60
2022-10-29T22:56:02.602Z,6.13
2022-10-29T22:58:30.783Z,5.43
2022-10-29T23:01:03.162Z,6.40
2022-10-29T23:03:31.179Z,5.97
2022-10-29T23:05:59.206Z,6.33
2022-10-29T23:08:29.208Z,6.83
2022-10-29T23:10:57.091Z,6.43
2022-10-29T23:13:25.421Z,5.53
2022-10-29T23:15:54.314Z,6.47
2022-10-29T23:18:22.368Z,6.43
2022-10-29T23:20:50.325Z,5.90
2022-10-29T23:23:18.293Z,6.33
2022-10-29T23:25:47.986Z,6.63
2022-10-29T23:28:15.851Z,7.07
2022-10-29T23:30:43.766Z,6.30
2022-10-29T23:33:11.647Z,6.10
2022-10-29T23:35:39.546Z,5.60
2022-10-29T23:38:07.502Z,6.03
2022-10-29T23:40:35.512Z,6.00
2022-10-29T23:43:04.869Z,5.90
2022-10-29T23:45:32.880Z,5.90
2022-10-29T23:48:01.939Z,6.20
2022-10-29T23:50:29.894Z,5.60
2022-10-29T23:52:58.081Z,5.20
2022-10-29T23:55:26.091Z,5.50
2022-10-29T23:57:54.209Z,5.87
